Accueil
METAR-TAF:

METAR-TAF

Aéroports :

Aéroport de Minorque

Minorque, Espagne

latitude: 39-52N, longitude: 004-14E, altitude: 87 m

Observation

Le bulletin a été fait il y a 20 minutes, à 23:30 UTC
Vent 6 kt de est/nord-est
Température 11°C
Humidité 76%
Pression 1020 hPa
Visibilité 10 km ou plus

METAR: LEMH 262330Z AUTO 06006KT 9999 BKN038/// BKN046/// 11/07 Q1020

Heure: 00:50 (23:50 UTC)

Prévision

Le bulletin a été fait il y a 3 heures et 50 minutes, à 20:00 UTC
Prévision valable du 26 à 21 UTC au 27 à 21 UTC
Vent 5 kt de direction variable
Visibilité 10 km ou plus
pas de nuages en-dessous de 1500 mètres et pas de cumulonimbus.
Temporairement
du 27 à 08 UTC au 27 à 10 UTC
Vent 15 kt de ouest/sud-ouest

TAF: LEMH 262000Z 2621/2721 VRB05KT CAVOK TX17/2712Z TN08/2706Z TEMPO 2708/2710 25015KT

Observations et prévisions météorologiques de plus de 4000 aéroports (messages METAR et TAF).

Les stations disponibles sont représentées par des disques jaunes et rouges sur la carte.

Passer la souris dessus pour voir le nom de la station.

Cliquer dessus pour voir les observations et prévisions météorologiques.

Pour changer de carte: cliquez sur les boutons verts avec une croix noire pour zoomer, sur le bouton vert avec un tiret pour effectuer un zoom arrière, ou sur les flèches vertes pour les cartes adjacentes.


METAR-TAF: